sensor_id;sensor_type;location;lat;lon;timestamp;pressure;altitude;pressure_sealevel;temperature;humidity
5954;BME280;3002;42.642;24.812;2023-03-23T00:00:53;96405.06;;;12.72;100.00
5954;BME280;3002;42.642;24.812;2023-03-23T00:03:20;96374.81;;;12.39;100.00
5954;BME280;3002;42.642;24.812;2023-03-23T00:05:47;96410.56;;;12.67;100.00
5954;BME280;3002;42.642;24.812;2023-03-23T00:08:19;96371.19;;;12.57;100.00
5954;BME280;3002;42.642;24.812;2023-03-23T00:10:50;96382.53;;;12.68;100.00
5954;BME280;3002;42.642;24.812;2023-03-23T00:13:28;96399.28;;;12.65;100.00
5954;BME280;3002;42.642;24.812;2023-03-23T00:15:54;96393.63;;;12.52;100.00
5954;BME280;3002;42.642;24.812;2023-03-23T00:18:22;96398.19;;;12.66;100.00
5954;BME280;3002;42.642;24.812;2023-03-23T00:20:55;96381.47;;;12.55;100.00
5954;BME280;3002;42.642;24.812;2023-03-23T00:23:24;96369.72;;;12.51;100.00
5954;BME280;3002;42.642;24.812;2023-03-23T00:25:52;96387.75;;;12.23;100.00
5954;BME280;3002;42.642;24.812;2023-03-23T00:28:19;96398.19;;;12.52;100.00
5954;BME280;3002;42.642;24.812;2023-03-23T00:31:05;96394.47;;;12.75;100.00
5954;BME280;3002;42.642;24.812;2023-03-23T00:33:34;96385.66;;;12.47;100.00
5954;BME280;3002;42.642;24.812;2023-03-23T00:36:04;96393.00;;;11.87;100.00
5954;BME280;3002;42.642;24.812;2023-03-23T00:38:31;96394.16;;;12.13;100.00
5954;BME280;3002;42.642;24.812;2023-03-23T00:40:57;96382.78;;;11.89;100.00
5954;BME280;3002;42.642;24.812;2023-03-23T00:43:23;96346.56;;;12.00;100.00
5954;BME280;3002;42.642;24.812;2023-03-23T00:45:54;96372.91;;;11.84;100.00
5954;BME280;3002;42.642;24.812;2023-03-23T00:48:21;96374.88;;;11.78;100.00
5954;BME280;3002;42.642;24.812;2023-03-23T00:50:47;96383.00;;;12.06;100.00
5954;BME280;3002;42.642;24.812;2023-03-23T00:53:14;96347.75;;;11.34;100.00
5954;BME280;3002;42.642;24.812;2023-03-23T00:55:44;96359.31;;;11.62;100.00
5954;BME280;3002;42.642;24.812;2023-03-23T00:58:10;96366.75;;;11.51;100.00
5954;BME280;3002;42.642;24.812;2023-03-23T01:00:36;96378.16;;;11.29;100.00
5954;BME280;3002;42.642;24.812;2023-03-23T01:03:02;96372.28;;;11.73;100.00
5954;BME280;3002;42.642;24.812;2023-03-23T01:05:27;96374.22;;;12.14;100.00
5954;BME280;3002;42.642;24.812;2023-03-23T01:07:58;96385.06;;;12.23;100.00
5954;BME280;3002;42.642;24.812;2023-03-23T01:10:23;96384.59;;;11.74;100.00
5954;BME280;3002;42.642;24.812;2023-03-23T01:12:50;96363.97;;;11.89;100.00
5954;BME280;3002;42.642;24.812;2023-03-23T01:15:16;96362.00;;;11.94;100.00
5954;BME280;3002;42.642;24.812;2023-03-23T01:17:44;96349.66;;;11.47;100.00
5954;BME280;3002;42.642;24.812;2023-03-23T01:20:12;96368.47;;;11.61;100.00
5954;BME280;3002;42.642;24.812;2023-03-23T01:22:39;96363.41;;;11.73;100.00
5954;BME280;3002;42.642;24.812;2023-03-23T01:25:05;96365.84;;;12.16;100.00
5954;BME280;3002;42.642;24.812;2023-03-23T01:27:31;96348.88;;;11.74;100.00
5954;BME280;3002;42.642;24.812;2023-03-23T01:29:57;96345.88;;;11.62;100.00
5954;BME280;3002;42.642;24.812;2023-03-23T01:32:23;96379.09;;;11.19;100.00
5954;BME280;3002;42.642;24.812;2023-03-23T01:34:48;96337.09;;;10.58;100.00
5954;BME280;3002;42.642;24.812;2023-03-23T01:37:14;96358.41;;;10.68;100.00
5954;BME280;3002;42.642;24.812;2023-03-23T01:39:41;96339.81;;;10.91;100.00
5954;BME280;3002;42.642;24.812;2023-03-23T01:42:09;96337.72;;;11.20;100.00
5954;BME280;3002;42.642;24.812;2023-03-23T01:47:00;96370.31;;;11.14;100.00
5954;BME280;3002;42.642;24.812;2023-03-23T01:49:29;96379.34;;;11.37;100.00
5954;BME280;3002;42.642;24.812;2023-03-23T01:51:59;96365.13;;;11.36;100.00
5954;BME280;3002;42.642;24.812;2023-03-23T01:54:27;96332.56;;;11.10;100.00
5954;BME280;3002;42.642;24.812;2023-03-23T01:56:59;96366.66;;;11.56;100.00
5954;BME280;3002;42.642;24.812;2023-03-23T01:59:26;96371.03;;;11.85;100.00
5954;BME280;3002;42.642;24.812;2023-03-23T02:01:54;96350.41;;;11.34;100.00
5954;BME280;3002;42.642;24.812;2023-03-23T02:04:23;96373.81;;;11.47;100.00
5954;BME280;3002;42.642;24.812;2023-03-23T02:06:51;96365.34;;;10.69;100.00
5954;BME280;3002;42.642;24.812;2023-03-23T02:09:17;96359.56;;;10.81;100.00
5954;BME280;3002;42.642;24.812;2023-03-23T02:11:44;96363.69;;;10.74;100.00
5954;BME280;3002;42.642;24.812;2023-03-23T02:14:10;96377.13;;;10.74;100.00
5954;BME280;3002;42.642;24.812;2023-03-23T02:16:40;96371.09;;;10.82;100.00
5954;BME280;3002;42.642;24.812;2023-03-23T02:24:43;96380.34;;;10.89;100.00
5954;BME280;3002;42.642;24.812;2023-03-23T02:33:05;96384.19;;;10.83;100.00
5954;BME280;3002;42.642;24.812;2023-03-23T02:35:56;96346.78;;;10.35;100.00
5954;BME280;3002;42.642;24.812;2023-03-23T02:38:30;96379.25;;;11.09;100.00
5954;BME280;3002;42.642;24.812;2023-03-23T02:41:00;96385.41;;;10.91;100.00
5954;BME280;3002;42.642;24.812;2023-03-23T02:43:31;96384.25;;;10.78;100.00
5954;BME280;3002;42.642;24.812;2023-03-23T02:45:58;96388.53;;;10.79;100.00
5954;BME280;3002;42.642;24.812;2023-03-23T02:48:29;96396.06;;;11.15;100.00
5954;BME280;3002;42.642;24.812;2023-03-23T02:50:55;96373.09;;;10.71;100.00
5954;BME280;3002;42.642;24.812;2023-03-23T02:53:24;96404.63;;;11.17;100.00
5954;BME280;3002;42.642;24.812;2023-03-23T02:55:53;96404.78;;;10.88;100.00
5954;BME280;3002;42.642;24.812;2023-03-23T02:58:20;96382.38;;;10.60;100.00
5954;BME280;3002;42.642;24.812;2023-03-23T03:00:49;96379.69;;;10.41;100.00
5954;BME280;3002;42.642;24.812;2023-03-23T03:03:20;96379.97;;;10.39;100.00
5954;BME280;3002;42.642;24.812;2023-03-23T03:06:19;96404.28;;;11.23;100.00
5954;BME280;3002;42.642;24.812;2023-03-23T03:09:04;96377.69;;;10.04;100.00
5954;BME280;3002;42.642;24.812;2023-03-23T03:11:32;96383.75;;;10.57;100.00
5954;BME280;3002;42.642;24.812;2023-03-23T03:14:11;96401.81;;;11.08;100.00
5954;BME280;3002;42.642;24.812;2023-03-23T03:17:06;96410.72;;;11.22;100.00
5954;BME280;3002;42.642;24.812;2023-03-23T03:19:39;96390.59;;;10.68;100.00
5954;BME280;3002;42.642;24.812;2023-03-23T03:22:07;96417.16;;;11.21;100.00
5954;BME280;3002;42.642;24.812;2023-03-23T03:24:33;96413.34;;;10.90;100.00
5954;BME280;3002;42.642;24.812;2023-03-23T03:27:03;96422.69;;;11.30;100.00
5954;BME280;3002;42.642;24.812;2023-03-23T03:29:36;96407.03;;;10.99;100.00
5954;BME280;3002;42.642;24.812;2023-03-23T03:32:04;96369.66;;;10.04;100.00
5954;BME280;3002;42.642;24.812;2023-03-23T03:34:33;96413.44;;;11.04;100.00
5954;BME280;3002;42.642;24.812;2023-03-23T03:36:59;96423.88;;;11.05;100.00
5954;BME280;3002;42.642;24.812;2023-03-23T03:39:25;96406.94;;;10.24;100.00
5954;BME280;3002;42.642;24.812;2023-03-23T03:41:51;96398.19;;;10.37;100.00
5954;BME280;3002;42.642;24.812;2023-03-23T03:44:17;96397.84;;;10.68;100.00
5954;BME280;3002;42.642;24.812;2023-03-23T03:46:42;96386.31;;;10.25;100.00
5954;BME280;3002;42.642;24.812;2023-03-23T03:49:09;96413.72;;;10.40;100.00
5954;BME280;3002;42.642;24.812;2023-03-23T03:51:39;96377.50;;;10.43;100.00
5954;BME280;3002;42.642;24.812;2023-03-23T03:54:05;96411.25;;;10.87;100.00
5954;BME280;3002;42.642;24.812;2023-03-23T03:56:31;96400.66;;;10.58;100.00
5954;BME280;3002;42.642;24.812;2023-03-23T03:59:00;96399.78;;;10.62;100.00
5954;BME280;3002;42.642;24.812;2023-03-23T04:01:26;96377.72;;;10.47;100.00
5954;BME280;3002;42.642;24.812;2023-03-23T04:03:51;96386.38;;;11.00;100.00
5954;BME280;3002;42.642;24.812;2023-03-23T04:06:17;96422.03;;;11.19;100.00
5954;BME280;3002;42.642;24.812;2023-03-23T04:08:44;96390.00;;;10.71;100.00
5954;BME280;3002;42.642;24.812;2023-03-23T04:11:11;96427.41;;;11.19;100.00
5954;BME280;3002;42.642;24.812;2023-03-23T04:13:42;96424.91;;;10.66;100.00
5954;BME280;3002;42.642;24.812;2023-03-23T04:16:08;96379.28;;;10.05;100.00
5954;BME280;3002;42.642;24.812;2023-03-23T04:18:34;96421.75;;;10.83;100.00
5954;BME280;3002;42.642;24.812;2023-03-23T04:21:01;96425.31;;;10.97;100.00
5954;BME280;3002;42.642;24.812;2023-03-23T04:23:29;96432.47;;;11.02;100.00
5954;BME280;3002;42.642;24.812;2023-03-23T04:25:55;96433.13;;;10.56;100.00
5954;BME280;3002;42.642;24.812;2023-03-23T04:28:23;96432.66;;;10.92;100.00
5954;BME280;3002;42.642;24.812;2023-03-23T04:30:53;96428.81;;;10.98;100.00
5954;BME280;3002;42.642;24.812;2023-03-23T04:33:20;96397.97;;;10.77;100.00
5954;BME280;3002;42.642;24.812;2023-03-23T04:35:47;96427.78;;;10.75;100.00
5954;BME280;3002;42.642;24.812;2023-03-23T04:38:15;96425.78;;;11.37;100.00
5954;BME280;3002;42.642;24.812;2023-03-23T04:40:42;96426.25;;;11.25;100.00
5954;BME280;3002;42.642;24.812;2023-03-23T04:43:09;96429.88;;;10.97;100.00
5954;BME280;3002;42.642;24.812;2023-03-23T04:45:38;96423.44;;;11.17;100.00
5954;BME280;3002;42.642;24.812;2023-03-23T04:48:08;96400.72;;;11.09;100.00
5954;BME280;3002;42.642;24.812;2023-03-23T04:50:34;96438.66;;;11.03;100.00
5954;BME280;3002;42.642;24.812;2023-03-23T04:53:01;96444.22;;;11.25;100.00
5954;BME280;3002;42.642;24.812;2023-03-23T04:55:34;96429.19;;;11.43;100.00
5954;BME280;3002;42.642;24.812;2023-03-23T04:58:03;96393.28;;;11.39;100.00
5954;BME280;3002;42.642;24.812;2023-03-23T05:00:29;96438.63;;;11.73;100.00
5954;BME280;3002;42.642;24.812;2023-03-23T05:02:55;96442.19;;;11.68;100.00
5954;BME280;3002;42.642;24.812;2023-03-23T05:05:22;96426.97;;;11.12;100.00
5954;BME280;3002;42.642;24.812;2023-03-23T05:07:48;96430.84;;;11.58;100.00
5954;BME280;3002;42.642;24.812;2023-03-23T05:10:15;96453.75;;;11.88;100.00
5954;BME280;3002;42.642;24.812;2023-03-23T05:12:41;96456.44;;;12.01;100.00
5954;BME280;3002;42.642;24.812;2023-03-23T05:15:08;96463.50;;;12.11;100.00
5954;BME280;3002;42.642;24.812;2023-03-23T05:17:34;96439.84;;;12.13;100.00
5954;BME280;3002;42.642;24.812;2023-03-23T05:20:00;96462.31;;;12.03;100.00
5954;BME280;3002;42.642;24.812;2023-03-23T05:22:27;96466.75;;;11.62;100.00
5954;BME280;3002;42.642;24.812;2023-03-23T05:24:53;96441.69;;;11.66;100.00
5954;BME280;3002;42.642;24.812;2023-03-23T05:27:19;96470.16;;;11.16;100.00
5954;BME280;3002;42.642;24.812;2023-03-23T05:29:46;96464.59;;;11.64;100.00
5954;BME280;3002;42.642;24.812;2023-03-23T05:32:15;96475.91;;;11.93;100.00
5954;BME280;3002;42.642;24.812;2023-03-23T05:34:42;96458.47;;;11.77;100.00
5954;BME280;3002;42.642;24.812;2023-03-23T05:37:08;96486.13;;;12.10;100.00
5954;BME280;3002;42.642;24.812;2023-03-23T05:39:35;96451.47;;;11.95;100.00
5954;BME280;3002;42.642;24.812;2023-03-23T05:42:01;96473.19;;;11.79;100.00
5954;BME280;3002;42.642;24.812;2023-03-23T05:44:27;96461.72;;;11.22;100.00
5954;BME280;3002;42.642;24.812;2023-03-23T05:46:52;96477.84;;;11.74;100.00
5954;BME280;3002;42.642;24.812;2023-03-23T05:49:18;96483.22;;;11.74;100.00
5954;BME280;3002;42.642;24.812;2023-03-23T05:51:44;96480.50;;;11.93;100.00
5954;BME280;3002;42.642;24.812;2023-03-23T05:54:12;96471.19;;;12.04;100.00
5954;BME280;3002;42.642;24.812;2023-03-23T05:56:38;96474.78;;;12.13;100.00
5954;BME280;3002;42.642;24.812;2023-03-23T05:59:03;96495.41;;;11.85;100.00
5954;BME280;3002;42.642;24.812;2023-03-23T06:01:29;96466.72;;;12.27;100.00
5954;BME280;3002;42.642;24.812;2023-03-23T06:03:55;96489.75;;;13.02;100.00
5954;BME280;3002;42.642;24.812;2023-03-23T06:06:26;96482.72;;;13.28;100.00
5954;BME280;3002;42.642;24.812;2023-03-23T06:08:53;96475.63;;;13.32;100.00
5954;BME280;3002;42.642;24.812;2023-03-23T06:11:19;96468.03;;;13.34;100.00
5954;BME280;3002;42.642;24.812;2023-03-23T06:13:45;96484.25;;;13.21;100.00
5954;BME280;3002;42.642;24.812;2023-03-23T06:16:10;96476.03;;;13.12;100.00
5954;BME280;3002;42.642;24.812;2023-03-23T06:18:36;96504.84;;;13.25;100.00
5954;BME280;3002;42.642;24.812;2023-03-23T06:21:03;96489.78;;;13.60;100.00
5954;BME280;3002;42.642;24.812;2023-03-23T06:23:29;96488.25;;;13.46;100.00
5954;BME280;3002;42.642;24.812;2023-03-23T06:25:57;96478.97;;;12.88;100.00
5954;BME280;3002;42.642;24.812;2023-03-23T06:28:48;96507.94;;;13.19;100.00
5954;BME280;3002;42.642;24.812;2023-03-23T06:31:14;96493.34;;;12.83;100.00
5954;BME280;3002;42.642;24.812;2023-03-23T06:33:39;96479.38;;;12.13;100.00
5954;BME280;3002;42.642;24.812;2023-03-23T06:36:06;96514.84;;;13.11;100.00
5954;BME280;3002;42.642;24.812;2023-03-23T06:38:32;96501.63;;;13.37;100.00
5954;BME280;3002;42.642;24.812;2023-03-23T06:40:57;96493.03;;;13.49;100.00
5954;BME280;3002;42.642;24.812;2023-03-23T06:43:23;96514.00;;;13.74;100.00
5954;BME280;3002;42.642;24.812;2023-03-23T06:45:49;96498.44;;;14.47;98.42
5954;BME280;3002;42.642;24.812;2023-03-23T06:48:15;96521.97;;;15.04;91.59
5954;BME280;3002;42.642;24.812;2023-03-23T06:50:45;96496.47;;;14.70;92.86
5954;BME280;3002;42.642;24.812;2023-03-23T06:53:11;96534.19;;;14.53;97.08
5954;BME280;3002;42.642;24.812;2023-03-23T06:55:37;96533.16;;;14.17;100.00
5954;BME280;3002;42.642;24.812;2023-03-23T06:58:04;96518.97;;;13.81;100.00
5954;BME280;3002;42.642;24.812;2023-03-23T07:00:31;96518.09;;;13.72;100.00
5954;BME280;3002;42.642;24.812;2023-03-23T07:02:56;96515.78;;;14.55;98.23
5954;BME280;3002;42.642;24.812;2023-03-23T07:05:22;96503.94;;;15.82;84.91
5954;BME280;3002;42.642;24.812;2023-03-23T07:07:48;96518.28;;;15.91;83.87
5954;BME280;3002;42.642;24.812;2023-03-23T07:10:13;96538.81;;;15.84;85.58
5954;BME280;3002;42.642;24.812;2023-03-23T07:12:39;96541.31;;;15.89;85.90
5954;BME280;3002;42.642;24.812;2023-03-23T07:15:08;96532.31;;;15.10;91.30
5954;BME280;3002;42.642;24.812;2023-03-23T07:17:36;96536.31;;;14.42;99.62
5954;BME280;3002;42.642;24.812;2023-03-23T07:20:02;96544.59;;;13.92;100.00
5954;BME280;3002;42.642;24.812;2023-03-23T07:22:28;96532.66;;;15.17;90.71
5954;BME280;3002;42.642;24.812;2023-03-23T07:24:53;96556.59;;;15.76;89.22
5954;BME280;3002;42.642;24.812;2023-03-23T07:27:19;96554.19;;;17.71;77.25
5954;BME280;3002;42.642;24.812;2023-03-23T07:29:44;96562.22;;;18.87;68.27
5954;BME280;3002;42.642;24.812;2023-03-23T07:32:11;96561.06;;;20.70;61.66
5954;BME280;3002;42.642;24.812;2023-03-23T07:34:37;96555.06;;;21.98;57.48
5954;BME280;3002;42.642;24.812;2023-03-23T07:37:03;96514.53;;;22.39;56.11
5954;BME280;3002;42.642;24.812;2023-03-23T07:39:29;96541.94;;;22.23;55.72
5954;BME280;3002;42.642;24.812;2023-03-23T07:41:54;96540.81;;;21.34;55.08
5954;BME280;3002;42.642;24.812;2023-03-23T07:44:20;96555.72;;;21.72;56.20
5954;BME280;3002;42.642;24.812;2023-03-23T07:46:46;96535.31;;;20.40;58.77
5954;BME280;3002;42.642;24.812;2023-03-23T07:49:12;96558.72;;;21.67;56.81
5954;BME280;3002;42.642;24.812;2023-03-23T07:51:38;96557.25;;;20.31;59.29
5954;BME280;3002;42.642;24.812;2023-03-23T07:54:05;96519.19;;;21.10;55.92
5954;BME280;3002;42.642;24.812;2023-03-23T07:56:34;96568.44;;;19.49;60.90
5954;BME280;3002;42.642;24.812;2023-03-23T07:59:01;96553.06;;;19.16;65.46
5954;BME280;3002;42.642;24.812;2023-03-23T08:01:28;96534.56;;;20.27;57.90
5954;BME280;3002;42.642;24.812;2023-03-23T08:03:53;96527.19;;;16.73;67.12
5954;BME280;3002;42.642;24.812;2023-03-23T08:06:21;96552.53;;;19.88;58.77
5954;BME280;3002;42.642;24.812;2023-03-23T08:08:48;96515.38;;;19.80;58.53
5954;BME280;3002;42.642;24.812;2023-03-23T08:11:15;96538.66;;;18.67;61.54
5954;BME280;3002;42.642;24.812;2023-03-23T08:13:41;96553.25;;;19.48;59.08
5954;BME280;3002;42.642;24.812;2023-03-23T08:16:08;96531.06;;;19.46;59.32
5954;BME280;3002;42.642;24.812;2023-03-23T08:18:35;96545.06;;;20.41;57.16
5954;BME280;3002;42.642;24.812;2023-03-23T08:21:03;96551.31;;;20.13;57.45
5954;BME280;3002;42.642;24.812;2023-03-23T08:23:35;96560.03;;;19.78;57.78
5954;BME280;3002;42.642;24.812;2023-03-23T08:26:02;96552.50;;;18.98;58.71
5954;BME280;3002;42.642;24.812;2023-03-23T08:28:28;96545.34;;;19.67;56.44
5954;BME280;3002;42.642;24.812;2023-03-23T08:30:54;96552.16;;;22.88;50.62
5954;BME280;3002;42.642;24.812;2023-03-23T08:33:19;96521.72;;;21.34;53.57
5954;BME280;3002;42.642;24.812;2023-03-23T08:35:54;96558.34;;;23.57;49.42
5954;BME280;3002;42.642;24.812;2023-03-23T08:38:20;96549.66;;;19.96;54.72
5954;BME280;3002;42.642;24.812;2023-03-23T08:40:46;96501.34;;;19.53;57.03
5954;BME280;3002;42.642;24.812;2023-03-23T08:43:13;96553.19;;;19.32;59.06
5954;BME280;3002;42.642;24.812;2023-03-23T08:45:41;96545.69;;;18.47;60.12
5954;BME280;3002;42.642;24.812;2023-03-23T08:48:08;96538.06;;;18.28;61.82
5954;BME280;3002;42.642;24.812;2023-03-23T08:50:34;96555.41;;;18.03;62.48
5954;BME280;3002;42.642;24.812;2023-03-23T08:53:00;96532.47;;;16.99;63.70
5954;BME280;3002;42.642;24.812;2023-03-23T08:55:26;96535.50;;;16.98;65.24
5954;BME280;3002;42.642;24.812;2023-03-23T08:57:52;96545.56;;;17.77;63.94
5954;BME280;3002;42.642;24.812;2023-03-23T09:00:19;96546.81;;;17.50;62.85
5954;BME280;3002;42.642;24.812;2023-03-23T09:02:50;96560.66;;;18.20;62.67
5954;BME280;3002;42.642;24.812;2023-03-23T09:05:18;96541.81;;;19.55;57.81
5954;BME280;3002;42.642;24.812;2023-03-23T09:07:46;96542.28;;;19.44;59.04
5954;BME280;3002;42.642;24.812;2023-03-23T09:10:13;96558.09;;;20.19;56.67
5954;BME280;3002;42.642;24.812;2023-03-23T09:12:40;96551.69;;;19.35;57.12
5954;BME280;3002;42.642;24.812;2023-03-23T09:15:10;96561.31;;;19.44;56.89
5954;BME280;3002;42.642;24.812;2023-03-23T09:17:39;96552.75;;;20.51;55.78
5954;BME280;3002;42.642;24.812;2023-03-23T09:20:05;96562.00;;;20.06;54.42
5954;BME280;3002;42.642;24.812;2023-03-23T09:22:38;96561.28;;;20.49;52.26
5954;BME280;3002;42.642;24.812;2023-03-23T09:25:05;96541.66;;;21.54;50.71
5954;BME280;3002;42.642;24.812;2023-03-23T09:27:31;96552.72;;;19.06;53.65
5954;BME280;3002;42.642;24.812;2023-03-23T09:29:57;96537.34;;;20.15;52.17
5954;BME280;3002;42.642;24.812;2023-03-23T09:32:22;96536.75;;;17.80;57.11
5954;BME280;3002;42.642;24.812;2023-03-23T09:34:48;96549.31;;;17.85;59.55
5954;BME280;3002;42.642;24.812;2023-03-23T09:37:14;96553.41;;;20.04;56.05
5954;BME280;3002;42.642;24.812;2023-03-23T09:39:40;96555.75;;;19.65;54.60
5954;BME280;3002;42.642;24.812;2023-03-23T09:45:16;96496.50;;;17.61;56.40
5954;BME280;3002;42.642;24.812;2023-03-23T09:50:35;96528.69;;;18.71;54.18
5954;BME280;3002;42.642;24.812;2023-03-23T09:53:13;96546.63;;;19.09;54.58
5954;BME280;3002;42.642;24.812;2023-03-23T09:55:40;96536.50;;;17.44;57.90
5954;BME280;3002;42.642;24.812;2023-03-23T10:03:25;96525.66;;;17.23;59.80
5954;BME280;3002;42.642;24.812;2023-03-23T10:05:53;96544.53;;;17.40;59.69
5954;BME280;3002;42.642;24.812;2023-03-23T10:08:21;96558.97;;;17.44;60.21
5954;BME280;3002;42.642;24.812;2023-03-23T10:16:20;96560.97;;;17.35;58.97
5954;BME280;3002;42.642;24.812;2023-03-23T10:21:21;96562.44;;;16.30;58.78
5954;BME280;3002;42.642;24.812;2023-03-23T10:29:47;96536.81;;;16.92;61.70
5954;BME280;3002;42.642;24.812;2023-03-23T10:32:20;96538.13;;;16.77;62.90
5954;BME280;3002;42.642;24.812;2023-03-23T10:34:52;96549.25;;;16.93;61.33
5954;BME280;3002;42.642;24.812;2023-03-23T10:37:25;96562.50;;;16.77;61.16
5954;BME280;3002;42.642;24.812;2023-03-23T10:39:53;96528.63;;;17.00;60.25
5954;BME280;3002;42.642;24.812;2023-03-23T10:42:31;96549.06;;;16.98;60.80
5954;BME280;3002;42.642;24.812;2023-03-23T10:45:00;96529.06;;;16.09;63.76
5954;BME280;3002;42.642;24.812;2023-03-23T10:47:26;96548.25;;;16.50;63.63
5954;BME280;3002;42.642;24.812;2023-03-23T10:49:59;96525.09;;;16.70;63.54
5954;BME280;3002;42.642;24.812;2023-03-23T10:52:33;96549.00;;;16.68;62.84
5954;BME280;3002;42.642;24.812;2023-03-23T10:55:16;96545.75;;;16.83;62.63
5954;BME280;3002;42.642;24.812;2023-03-23T10:58:03;96550.31;;;17.00;62.26
5954;BME280;3002;42.642;24.812;2023-03-23T11:00:30;96555.56;;;17.35;61.95
5954;BME280;3002;42.642;24.812;2023-03-23T11:05:42;96552.03;;;16.58;62.54
5954;BME280;3002;42.642;24.812;2023-03-23T11:08:14;96548.75;;;16.91;62.67
5954;BME280;3002;42.642;24.812;2023-03-23T11:10:47;96543.94;;;17.97;60.61
5954;BME280;3002;42.642;24.812;2023-03-23T11:13:15;96542.31;;;17.84;61.06
5954;BME280;3002;42.642;24.812;2023-03-23T11:15:42;96539.88;;;18.69;58.82
5954;BME280;3002;42.642;24.812;2023-03-23T11:21:13;96523.28;;;18.05;57.79
5954;BME280;3002;42.642;24.812;2023-03-23T11:23:42;96524.16;;;17.04;59.80
5954;BME280;3002;42.642;24.812;2023-03-23T11:26:30;96525.59;;;17.31;60.45
5954;BME280;3002;42.642;24.812;2023-03-23T11:29:02;96519.06;;;18.28;58.65
5954;BME280;3002;42.642;24.812;2023-03-23T11:31:43;96491.22;;;17.23;60.70
5954;BME280;3002;42.642;24.812;2023-03-23T11:34:14;96508.03;;;18.00;58.67
5954;BME280;3002;42.642;24.812;2023-03-23T11:36:53;96505.94;;;18.76;56.51
5954;BME280;3002;42.642;24.812;2023-03-23T11:39:58;96525.00;;;20.45;53.43
5954;BME280;3002;42.642;24.812;2023-03-23T11:42:34;96519.72;;;21.31;50.90
5954;BME280;3002;42.642;24.812;2023-03-23T11:45:31;96511.66;;;21.74;49.45
5954;BME280;3002;42.642;24.812;2023-03-23T11:48:22;96510.44;;;22.94;46.81
5954;BME280;3002;42.642;24.812;2023-03-23T11:51:12;96520.38;;;26.07;41.79
5954;BME280;3002;42.642;24.812;2023-03-23T11:58:48;96516.16;;;25.51;41.79
5954;BME280;3002;42.642;24.812;2023-03-23T12:04:35;96507.91;;;21.43;49.48
5954;BME280;3002;42.642;24.812;2023-03-23T12:07:33;96502.53;;;19.40;52.46
5954;BME280;3002;42.642;24.812;2023-03-23T12:18:00;96480.31;;;18.52;53.29
5954;BME280;3002;42.642;24.812;2023-03-23T12:28:52;96494.78;;;18.44;53.01
5954;BME280;3002;42.642;24.812;2023-03-23T12:37:42;96497.25;;;20.27;51.40
5954;BME280;3002;42.642;24.812;2023-03-23T12:43:05;96489.59;;;19.61;51.92
5954;BME280;3002;42.642;24.812;2023-03-23T12:48:22;96476.06;;;24.10;42.16
5954;BME280;3002;42.642;24.812;2023-03-23T12:51:10;96498.13;;;24.58;41.06
5954;BME280;3002;42.642;24.812;2023-03-23T12:53:44;96472.53;;;26.26;37.68
5954;BME280;3002;42.642;24.812;2023-03-23T12:56:14;96495.22;;;25.98;37.25
5954;BME280;3002;42.642;24.812;2023-03-23T12:59:11;96492.94;;;22.53;42.04
5954;BME280;3002;42.642;24.812;2023-03-23T13:01:40;96484.38;;;21.74;45.64
5954;BME280;3002;42.642;24.812;2023-03-23T13:04:18;96474.00;;;21.28;45.42
5954;BME280;3002;42.642;24.812;2023-03-23T13:06:46;96463.72;;;22.57;43.01
5954;BME280;3002;42.642;24.812;2023-03-23T13:11:55;96485.16;;;21.74;44.57
5954;BME280;3002;42.642;24.812;2023-03-23T13:14:43;96488.88;;;22.43;44.00
5954;BME280;3002;42.642;24.812;2023-03-23T13:20:32;96487.84;;;21.35;45.85
5954;BME280;3002;42.642;24.812;2023-03-23T13:25:52;96490.00;;;18.74;51.90
5954;BME280;3002;42.642;24.812;2023-03-23T13:28:27;96487.78;;;19.41;52.12
5954;BME280;3002;42.642;24.812;2023-03-23T13:31:11;96488.53;;;19.66;50.27
5954;BME280;3002;42.642;24.812;2023-03-23T13:33:38;96484.69;;;20.39;48.74
5954;BME280;3002;42.642;24.812;2023-03-23T13:36:12;96477.78;;;18.35;53.81
5954;BME280;3002;42.642;24.812;2023-03-23T13:38:43;96488.41;;;19.10;52.49
5954;BME280;3002;42.642;24.812;2023-03-23T13:41:12;96465.88;;;18.85;51.92
5954;BME280;3002;42.642;24.812;2023-03-23T13:43:40;96484.69;;;19.55;50.57
5954;BME280;3002;42.642;24.812;2023-03-23T13:49:02;96476.03;;;20.05;50.42
5954;BME280;3002;42.642;24.812;2023-03-23T13:51:35;96482.41;;;18.67;52.43
5954;BME280;3002;42.642;24.812;2023-03-23T13:54:24;96473.97;;;19.34;51.08
5954;BME280;3002;42.642;24.812;2023-03-23T13:57:00;96476.31;;;19.60;50.91
5954;BME280;3002;42.642;24.812;2023-03-23T14:01:57;96462.97;;;19.30;52.13
5954;BME280;3002;42.642;24.812;2023-03-23T14:04:41;96469.50;;;19.53;51.09
5954;BME280;3002;42.642;24.812;2023-03-23T14:07:11;96475.06;;;19.57;51.73
5954;BME280;3002;42.642;24.812;2023-03-23T14:09:39;96455.25;;;19.44;51.91
5954;BME280;3002;42.642;24.812;2023-03-23T14:14:44;96458.44;;;18.24;54.37
5954;BME280;3002;42.642;24.812;2023-03-23T14:17:26;96467.81;;;22.25;46.27
5954;BME280;3002;42.642;24.812;2023-03-23T14:19:55;96461.53;;;22.89;43.11
5954;BME280;3002;42.642;24.812;2023-03-23T14:22:27;96474.81;;;23.40;42.55
5954;BME280;3002;42.642;24.812;2023-03-23T14:25:12;96478.56;;;23.32;41.79
5954;BME280;3002;42.642;24.812;2023-03-23T14:27:38;96451.56;;;24.24;40.08
5954;BME280;3002;42.642;24.812;2023-03-23T14:30:12;96462.97;;;24.67;38.84
5954;BME280;3002;42.642;24.812;2023-03-23T14:32:38;96447.78;;;23.65;40.56
5954;BME280;3002;42.642;24.812;2023-03-23T14:35:21;96449.44;;;24.07;40.36
5954;BME280;3002;42.642;24.812;2023-03-23T14:37:47;96458.59;;;23.28;41.38
5954;BME280;3002;42.642;24.812;2023-03-23T14:40:16;96440.56;;;22.74;41.97
5954;BME280;3002;42.642;24.812;2023-03-23T14:42:42;96429.25;;;22.76;42.86
5954;BME280;3002;42.642;24.812;2023-03-23T14:45:14;96466.69;;;20.34;47.21
5954;BME280;3002;42.642;24.812;2023-03-23T14:47:43;96437.19;;;20.52;46.86
5954;BME280;3002;42.642;24.812;2023-03-23T14:50:30;96455.13;;;22.55;44.05
5954;BME280;3002;42.642;24.812;2023-03-23T14:52:59;96419.69;;;23.42;41.13
5954;BME280;3002;42.642;24.812;2023-03-23T14:55:25;96438.69;;;24.69;38.84